sensor_id;sensor_type;location;lat;lon;timestamp;P1;durP1;ratioP1;P2;durP2;ratioP2
9906;SDS011;4992;51.628;6.664;2023-04-06T00:00:58;8.83;;;6.20;;
9906;SDS011;4992;51.628;6.664;2023-04-06T00:03:24;8.67;;;5.40;;
9906;SDS011;4992;51.628;6.664;2023-04-06T00:05:50;7.07;;;5.77;;
9906;SDS011;4992;51.628;6.664;2023-04-06T00:08:16;8.03;;;6.00;;
9906;SDS011;4992;51.628;6.664;2023-04-06T00:10:42;7.20;;;6.03;;
9906;SDS011;4992;51.628;6.664;2023-04-06T00:13:08;8.07;;;6.27;;
9906;SDS011;4992;51.628;6.664;2023-04-06T00:15:34;9.43;;;6.30;;
9906;SDS011;4992;51.628;6.664;2023-04-06T00:18:00;9.90;;;6.10;;
9906;SDS011;4992;51.628;6.664;2023-04-06T00:20:26;10.00;;;6.70;;
9906;SDS011;4992;51.628;6.664;2023-04-06T00:22:53;7.83;;;5.87;;
9906;SDS011;4992;51.628;6.664;2023-04-06T00:25:19;7.40;;;6.27;;
9906;SDS011;4992;51.628;6.664;2023-04-06T00:27:45;9.00;;;6.00;;
9906;SDS011;4992;51.628;6.664;2023-04-06T00:30:11;9.73;;;7.13;;
9906;SDS011;4992;51.628;6.664;2023-04-06T00:32:37;11.63;;;8.70;;
9906;SDS011;4992;51.628;6.664;2023-04-06T00:35:03;13.37;;;8.77;;
9906;SDS011;4992;51.628;6.664;2023-04-06T00:37:29;13.70;;;9.20;;
9906;SDS011;4992;51.628;6.664;2023-04-06T00:39:56;10.37;;;7.20;;
9906;SDS011;4992;51.628;6.664;2023-04-06T00:42:22;11.60;;;7.00;;
9906;SDS011;4992;51.628;6.664;2023-04-06T00:44:54;10.03;;;7.37;;
9906;SDS011;4992;51.628;6.664;2023-04-06T00:47:21;10.80;;;7.73;;
9906;SDS011;4992;51.628;6.664;2023-04-06T00:49:47;12.50;;;7.80;;
9906;SDS011;4992;51.628;6.664;2023-04-06T00:52:13;11.67;;;7.80;;
9906;SDS011;4992;51.628;6.664;2023-04-06T00:54:39;12.03;;;7.50;;
9906;SDS011;4992;51.628;6.664;2023-04-06T00:57:05;10.37;;;7.00;;
9906;SDS011;4992;51.628;6.664;2023-04-06T00:59:31;9.97;;;7.07;;
9906;SDS011;4992;51.628;6.664;2023-04-06T01:01:57;9.23;;;6.77;;
9906;SDS011;4992;51.628;6.664;2023-04-06T01:04:24;9.27;;;6.83;;
9906;SDS011;4992;51.628;6.664;2023-04-06T01:06:50;9.00;;;6.87;;
9906;SDS011;4992;51.628;6.664;2023-04-06T01:09:16;8.03;;;6.70;;
9906;SDS011;4992;51.628;6.664;2023-04-06T01:11:43;11.67;;;6.93;;
9906;SDS011;4992;51.628;6.664;2023-04-06T01:14:09;8.60;;;6.40;;
9906;SDS011;4992;51.628;6.664;2023-04-06T01:16:35;8.70;;;6.53;;
9906;SDS011;4992;51.628;6.664;2023-04-06T01:19:06;7.90;;;6.47;;
9906;SDS011;4992;51.628;6.664;2023-04-06T01:21:33;11.10;;;6.83;;
9906;SDS011;4992;51.628;6.664;2023-04-06T01:23:59;7.43;;;6.23;;
9906;SDS011;4992;51.628;6.664;2023-04-06T01:26:25;7.83;;;6.17;;
9906;SDS011;4992;51.628;6.664;2023-04-06T01:28:51;8.33;;;7.00;;
9906;SDS011;4992;51.628;6.664;2023-04-06T01:31:17;8.67;;;6.37;;
9906;SDS011;4992;51.628;6.664;2023-04-06T01:33:43;10.80;;;7.47;;
9906;SDS011;4992;51.628;6.664;2023-04-06T01:36:10;10.90;;;6.83;;
9906;SDS011;4992;51.628;6.664;2023-04-06T01:38:36;10.70;;;7.40;;
9906;SDS011;4992;51.628;6.664;2023-04-06T01:41:02;11.47;;;6.67;;
9906;SDS011;4992;51.628;6.664;2023-04-06T01:43:28;7.47;;;6.43;;
9906;SDS011;4992;51.628;6.664;2023-04-06T01:45:54;8.30;;;6.63;;
9906;SDS011;4992;51.628;6.664;2023-04-06T01:48:20;12.23;;;8.93;;
9906;SDS011;4992;51.628;6.664;2023-04-06T01:50:46;10.47;;;8.67;;
9906;SDS011;4992;51.628;6.664;2023-04-06T01:53:12;9.83;;;8.37;;
9906;SDS011;4992;51.628;6.664;2023-04-06T01:55:39;11.30;;;8.00;;
9906;SDS011;4992;51.628;6.664;2023-04-06T01:58:05;9.30;;;7.10;;
9906;SDS011;4992;51.628;6.664;2023-04-06T02:00:31;7.93;;;6.43;;
9906;SDS011;4992;51.628;6.664;2023-04-06T02:02:57;9.57;;;6.70;;
9906;SDS011;4992;51.628;6.664;2023-04-06T02:05:23;8.23;;;6.27;;
9906;SDS011;4992;51.628;6.664;2023-04-06T02:07:49;8.60;;;5.97;;
9906;SDS011;4992;51.628;6.664;2023-04-06T02:10:16;9.23;;;6.27;;
9906;SDS011;4992;51.628;6.664;2023-04-06T02:12:42;9.27;;;7.23;;
9906;SDS011;4992;51.628;6.664;2023-04-06T02:15:08;11.97;;;6.93;;
9906;SDS011;4992;51.628;6.664;2023-04-06T02:17:34;8.03;;;6.37;;
9906;SDS011;4992;51.628;6.664;2023-04-06T02:20:00;8.47;;;6.23;;
9906;SDS011;4992;51.628;6.664;2023-04-06T02:22:26;10.07;;;6.57;;
9906;SDS011;4992;51.628;6.664;2023-04-06T02:24:52;6.67;;;5.97;;
9906;SDS011;4992;51.628;6.664;2023-04-06T02:27:18;7.03;;;6.13;;
9906;SDS011;4992;51.628;6.664;2023-04-06T02:29:44;8.90;;;6.27;;
9906;SDS011;4992;51.628;6.664;2023-04-06T02:32:10;7.67;;;6.20;;
9906;SDS011;4992;51.628;6.664;2023-04-06T02:34:36;7.60;;;6.40;;
9906;SDS011;4992;51.628;6.664;2023-04-06T02:37:02;8.87;;;5.93;;
9906;SDS011;4992;51.628;6.664;2023-04-06T02:39:28;10.77;;;6.47;;
9906;SDS011;4992;51.628;6.664;2023-04-06T02:41:54;10.70;;;6.07;;
9906;SDS011;4992;51.628;6.664;2023-04-06T02:44:20;8.10;;;6.07;;
9906;SDS011;4992;51.628;6.664;2023-04-06T02:46:46;9.83;;;6.80;;
9906;SDS011;4992;51.628;6.664;2023-04-06T02:49:12;7.70;;;5.93;;
9906;SDS011;4992;51.628;6.664;2023-04-06T02:51:38;8.63;;;5.87;;
9906;SDS011;4992;51.628;6.664;2023-04-06T02:54:04;8.73;;;6.70;;
9906;SDS011;4992;51.628;6.664;2023-04-06T02:56:30;12.10;;;6.40;;
9906;SDS011;4992;51.628;6.664;2023-04-06T02:58:56;8.27;;;6.30;;
9906;SDS011;4992;51.628;6.664;2023-04-06T03:01:22;7.27;;;6.13;;
9906;SDS011;4992;51.628;6.664;2023-04-06T03:03:48;12.00;;;6.30;;
9906;SDS011;4992;51.628;6.664;2023-04-06T03:06:14;7.57;;;6.70;;
9906;SDS011;4992;51.628;6.664;2023-04-06T03:08:40;8.40;;;7.13;;
9906;SDS011;4992;51.628;6.664;2023-04-06T03:11:06;10.77;;;6.93;;
9906;SDS011;4992;51.628;6.664;2023-04-06T03:13:32;8.67;;;6.87;;
9906;SDS011;4992;51.628;6.664;2023-04-06T03:15:58;12.83;;;6.90;;
9906;SDS011;4992;51.628;6.664;2023-04-06T03:18:24;9.47;;;6.57;;
9906;SDS011;4992;51.628;6.664;2023-04-06T03:20:51;8.77;;;6.80;;
9906;SDS011;4992;51.628;6.664;2023-04-06T03:23:20;8.93;;;7.40;;
9906;SDS011;4992;51.628;6.664;2023-04-06T03:25:46;8.07;;;6.40;;
9906;SDS011;4992;51.628;6.664;2023-04-06T03:28:12;10.27;;;6.87;;
9906;SDS011;4992;51.628;6.664;2023-04-06T03:30:38;8.37;;;5.87;;
9906;SDS011;4992;51.628;6.664;2023-04-06T03:33:04;15.53;;;6.67;;
9906;SDS011;4992;51.628;6.664;2023-04-06T03:35:30;9.00;;;6.63;;
9906;SDS011;4992;51.628;6.664;2023-04-06T03:37:56;9.63;;;7.07;;
9906;SDS011;4992;51.628;6.664;2023-04-06T03:40:22;11.60;;;7.50;;
9906;SDS011;4992;51.628;6.664;2023-04-06T03:42:48;8.87;;;6.73;;
9906;SDS011;4992;51.628;6.664;2023-04-06T03:45:14;8.30;;;6.90;;
9906;SDS011;4992;51.628;6.664;2023-04-06T03:47:40;9.10;;;6.63;;
9906;SDS011;4992;51.628;6.664;2023-04-06T03:50:06;8.20;;;6.20;;
9906;SDS011;4992;51.628;6.664;2023-04-06T03:52:32;10.40;;;7.33;;
9906;SDS011;4992;51.628;6.664;2023-04-06T03:54:58;8.30;;;6.67;;
9906;SDS011;4992;51.628;6.664;2023-04-06T03:57:24;9.67;;;7.13;;
9906;SDS011;4992;51.628;6.664;2023-04-06T03:59:50;11.20;;;7.50;;
9906;SDS011;4992;51.628;6.664;2023-04-06T04:02:16;10.77;;;7.50;;
9906;SDS011;4992;51.628;6.664;2023-04-06T04:04:42;8.03;;;6.87;;
9906;SDS011;4992;51.628;6.664;2023-04-06T04:07:08;9.27;;;7.23;;
9906;SDS011;4992;51.628;6.664;2023-04-06T04:09:34;9.57;;;7.60;;
9906;SDS011;4992;51.628;6.664;2023-04-06T04:12:00;11.13;;;6.60;;
9906;SDS011;4992;51.628;6.664;2023-04-06T04:14:26;12.73;;;7.53;;
9906;SDS011;4992;51.628;6.664;2023-04-06T04:16:52;12.83;;;7.00;;
9906;SDS011;4992;51.628;6.664;2023-04-06T04:19:18;9.13;;;7.63;;
9906;SDS011;4992;51.628;6.664;2023-04-06T04:21:44;10.27;;;7.23;;
9906;SDS011;4992;51.628;6.664;2023-04-06T04:24:11;13.63;;;7.90;;
9906;SDS011;4992;51.628;6.664;2023-04-06T04:26:37;11.37;;;7.60;;
9906;SDS011;4992;51.628;6.664;2023-04-06T04:29:03;12.37;;;7.63;;
9906;SDS011;4992;51.628;6.664;2023-04-06T04:31:29;10.43;;;7.40;;
9906;SDS011;4992;51.628;6.664;2023-04-06T04:33:55;9.70;;;7.60;;
9906;SDS011;4992;51.628;6.664;2023-04-06T04:36:21;10.67;;;8.27;;
9906;SDS011;4992;51.628;6.664;2023-04-06T04:38:49;8.57;;;7.53;;
9906;SDS011;4992;51.628;6.664;2023-04-06T04:41:15;11.30;;;8.27;;
9906;SDS011;4992;51.628;6.664;2023-04-06T04:43:41;12.83;;;8.23;;
9906;SDS011;4992;51.628;6.664;2023-04-06T04:46:07;12.23;;;8.30;;
9906;SDS011;4992;51.628;6.664;2023-04-06T04:48:33;12.77;;;8.40;;
9906;SDS011;4992;51.628;6.664;2023-04-06T04:50:59;11.00;;;7.47;;
9906;SDS011;4992;51.628;6.664;2023-04-06T04:53:25;11.73;;;8.73;;
9906;SDS011;4992;51.628;6.664;2023-04-06T04:55:51;12.37;;;7.97;;
9906;SDS011;4992;51.628;6.664;2023-04-06T04:58:17;13.63;;;8.50;;
9906;SDS011;4992;51.628;6.664;2023-04-06T05:00:44;12.40;;;8.20;;
9906;SDS011;4992;51.628;6.664;2023-04-06T05:03:21;15.90;;;8.67;;
9906;SDS011;4992;51.628;6.664;2023-04-06T05:05:47;13.47;;;9.07;;
9906;SDS011;4992;51.628;6.664;2023-04-06T05:08:13;16.53;;;8.60;;
9906;SDS011;4992;51.628;6.664;2023-04-06T05:10:39;13.13;;;9.37;;
9906;SDS011;4992;51.628;6.664;2023-04-06T05:13:05;11.47;;;8.33;;
9906;SDS011;4992;51.628;6.664;2023-04-06T05:15:31;16.73;;;9.77;;
9906;SDS011;4992;51.628;6.664;2023-04-06T05:17:59;18.03;;;10.90;;
9906;SDS011;4992;51.628;6.664;2023-04-06T05:20:25;14.77;;;9.13;;
9906;SDS011;4992;51.628;6.664;2023-04-06T05:22:51;15.30;;;8.73;;
9906;SDS011;4992;51.628;6.664;2023-04-06T05:25:17;15.33;;;9.27;;
9906;SDS011;4992;51.628;6.664;2023-04-06T05:27:43;14.13;;;9.50;;
9906;SDS011;4992;51.628;6.664;2023-04-06T05:30:09;12.20;;;9.20;;
9906;SDS011;4992;51.628;6.664;2023-04-06T05:32:35;16.37;;;10.97;;
9906;SDS011;4992;51.628;6.664;2023-04-06T05:35:01;15.43;;;9.53;;
9906;SDS011;4992;51.628;6.664;2023-04-06T05:37:27;18.20;;;11.60;;
9906;SDS011;4992;51.628;6.664;2023-04-06T05:39:53;17.70;;;9.67;;
9906;SDS011;4992;51.628;6.664;2023-04-06T05:42:19;14.37;;;10.07;;
9906;SDS011;4992;51.628;6.664;2023-04-06T05:44:45;15.27;;;10.40;;
9906;SDS011;4992;51.628;6.664;2023-04-06T05:47:11;14.43;;;9.70;;
9906;SDS011;4992;51.628;6.664;2023-04-06T05:49:37;14.87;;;10.93;;
9906;SDS011;4992;51.628;6.664;2023-04-06T05:52:03;18.77;;;10.87;;
9906;SDS011;4992;51.628;6.664;2023-04-06T05:54:29;20.77;;;12.10;;
9906;SDS011;4992;51.628;6.664;2023-04-06T05:56:55;17.23;;;11.27;;
9906;SDS011;4992;51.628;6.664;2023-04-06T05:59:21;14.80;;;11.57;;
9906;SDS011;4992;51.628;6.664;2023-04-06T06:01:47;17.87;;;12.63;;
9906;SDS011;4992;51.628;6.664;2023-04-06T06:04:13;18.27;;;13.07;;
9906;SDS011;4992;51.628;6.664;2023-04-06T06:06:38;18.93;;;12.77;;
9906;SDS011;4992;51.628;6.664;2023-04-06T06:09:04;19.97;;;12.43;;
9906;SDS011;4992;51.628;6.664;2023-04-06T06:11:30;18.60;;;12.60;;
9906;SDS011;4992;51.628;6.664;2023-04-06T06:13:57;18.83;;;12.40;;
9906;SDS011;4992;51.628;6.664;2023-04-06T06:16:23;22.60;;;13.03;;
9906;SDS011;4992;51.628;6.664;2023-04-06T06:18:49;19.27;;;12.53;;
9906;SDS011;4992;51.628;6.664;2023-04-06T06:21:15;27.53;;;12.87;;
9906;SDS011;4992;51.628;6.664;2023-04-06T06:23:42;21.57;;;13.37;;
9906;SDS011;4992;51.628;6.664;2023-04-06T06:26:08;20.80;;;13.63;;
9906;SDS011;4992;51.628;6.664;2023-04-06T06:28:34;24.13;;;13.40;;
9906;SDS011;4992;51.628;6.664;2023-04-06T06:31:00;18.63;;;13.80;;
9906;SDS011;4992;51.628;6.664;2023-04-06T06:33:26;20.87;;;13.57;;
9906;SDS011;4992;51.628;6.664;2023-04-06T06:35:52;17.17;;;13.10;;
9906;SDS011;4992;51.628;6.664;2023-04-06T06:38:18;14.70;;;11.93;;
9906;SDS011;4992;51.628;6.664;2023-04-06T06:40:46;19.80;;;12.07;;
9906;SDS011;4992;51.628;6.664;2023-04-06T06:43:12;14.43;;;11.03;;
9906;SDS011;4992;51.628;6.664;2023-04-06T06:45:38;16.17;;;10.20;;
9906;SDS011;4992;51.628;6.664;2023-04-06T06:48:04;19.47;;;10.30;;
9906;SDS011;4992;51.628;6.664;2023-04-06T06:50:30;15.50;;;10.90;;
9906;SDS011;4992;51.628;6.664;2023-04-06T06:52:56;16.67;;;10.17;;
9906;SDS011;4992;51.628;6.664;2023-04-06T06:55:22;14.23;;;10.13;;
9906;SDS011;4992;51.628;6.664;2023-04-06T06:57:48;15.13;;;9.37;;
9906;SDS011;4992;51.628;6.664;2023-04-06T07:00:14;12.27;;;8.63;;
9906;SDS011;4992;51.628;6.664;2023-04-06T07:02:40;18.00;;;9.57;;
9906;SDS011;4992;51.628;6.664;2023-04-06T07:05:06;13.57;;;9.47;;
9906;SDS011;4992;51.628;6.664;2023-04-06T07:07:32;11.33;;;9.03;;
9906;SDS011;4992;51.628;6.664;2023-04-06T07:09:59;13.30;;;9.37;;
9906;SDS011;4992;51.628;6.664;2023-04-06T07:12:25;13.13;;;8.57;;
9906;SDS011;4992;51.628;6.664;2023-04-06T07:14:51;13.30;;;8.03;;
9906;SDS011;4992;51.628;6.664;2023-04-06T07:17:17;11.90;;;8.40;;
9906;SDS011;4992;51.628;6.664;2023-04-06T07:19:43;15.63;;;8.60;;
9906;SDS011;4992;51.628;6.664;2023-04-06T07:22:10;16.87;;;8.40;;
9906;SDS011;4992;51.628;6.664;2023-04-06T07:24:36;14.00;;;9.40;;
9906;SDS011;4992;51.628;6.664;2023-04-06T07:27:02;18.50;;;8.63;;
9906;SDS011;4992;51.628;6.664;2023-04-06T07:29:28;16.43;;;9.40;;
9906;SDS011;4992;51.628;6.664;2023-04-06T07:31:54;19.97;;;10.13;;
9906;SDS011;4992;51.628;6.664;2023-04-06T07:34:20;17.23;;;9.93;;
9906;SDS011;4992;51.628;6.664;2023-04-06T07:36:46;17.03;;;9.00;;
9906;SDS011;4992;51.628;6.664;2023-04-06T07:39:12;14.60;;;9.00;;
9906;SDS011;4992;51.628;6.664;2023-04-06T07:41:38;13.40;;;8.37;;
9906;SDS011;4992;51.628;6.664;2023-04-06T07:44:04;15.13;;;8.90;;
9906;SDS011;4992;51.628;6.664;2023-04-06T07:46:30;15.53;;;8.17;;
9906;SDS011;4992;51.628;6.664;2023-04-06T07:48:57;13.97;;;7.50;;
9906;SDS011;4992;51.628;6.664;2023-04-06T07:51:23;16.63;;;8.23;;
9906;SDS011;4992;51.628;6.664;2023-04-06T07:53:50;14.87;;;8.50;;
9906;SDS011;4992;51.628;6.664;2023-04-06T07:56:16;14.67;;;8.20;;
9906;SDS011;4992;51.628;6.664;2023-04-06T07:58:42;15.03;;;8.53;;
9906;SDS011;4992;51.628;6.664;2023-04-06T08:01:08;10.53;;;7.93;;
9906;SDS011;4992;51.628;6.664;2023-04-06T08:03:35;13.70;;;8.53;;
9906;SDS011;4992;51.628;6.664;2023-04-06T08:06:01;19.47;;;9.27;;
9906;SDS011;4992;51.628;6.664;2023-04-06T08:08:27;14.53;;;8.17;;
9906;SDS011;4992;51.628;6.664;2023-04-06T08:10:53;12.30;;;9.33;;
9906;SDS011;4992;51.628;6.664;2023-04-06T08:13:20;15.33;;;8.90;;
9906;SDS011;4992;51.628;6.664;2023-04-06T08:15:46;16.13;;;8.87;;
9906;SDS011;4992;51.628;6.664;2023-04-06T08:18:12;16.47;;;8.93;;
9906;SDS011;4992;51.628;6.664;2023-04-06T08:20:38;19.27;;;9.53;;
9906;SDS011;4992;51.628;6.664;2023-04-06T08:23:04;16.83;;;9.67;;
9906;SDS011;4992;51.628;6.664;2023-04-06T08:25:31;19.90;;;9.67;;
9906;SDS011;4992;51.628;6.664;2023-04-06T08:27:57;12.33;;;8.97;;
9906;SDS011;4992;51.628;6.664;2023-04-06T08:30:23;13.23;;;8.87;;
9906;SDS011;4992;51.628;6.664;2023-04-06T08:32:49;18.27;;;9.70;;
9906;SDS011;4992;51.628;6.664;2023-04-06T08:35:15;14.67;;;8.87;;
9906;SDS011;4992;51.628;6.664;2023-04-06T08:37:41;13.97;;;8.87;;
9906;SDS011;4992;51.628;6.664;2023-04-06T08:40:07;11.77;;;8.50;;
9906;SDS011;4992;51.628;6.664;2023-04-06T08:42:33;15.20;;;9.43;;
9906;SDS011;4992;51.628;6.664;2023-04-06T08:45:04;15.97;;;9.43;;
9906;SDS011;4992;51.628;6.664;2023-04-06T08:47:30;12.93;;;9.40;;
9906;SDS011;4992;51.628;6.664;2023-04-06T08:49:56;14.60;;;9.35;;
9906;SDS011;4992;51.628;6.664;2023-04-06T08:52:22;14.20;;;10.27;;
9906;SDS011;4992;51.628;6.664;2023-04-06T08:54:48;20.15;;;10.23;;
9906;SDS011;4992;51.628;6.664;2023-04-06T08:57:14;18.45;;;10.90;;
9906;SDS011;4992;51.628;6.664;2023-04-06T08:59:41;21.87;;;10.80;;
9906;SDS011;4992;51.628;6.664;2023-04-06T09:02:06;15.10;;;10.90;;
9906;SDS011;4992;51.628;6.664;2023-04-06T09:04:36;18.02;;;11.05;;
9906;SDS011;4992;51.628;6.664;2023-04-06T09:07:02;12.80;;;9.85;;
9906;SDS011;4992;51.628;6.664;2023-04-06T09:09:28;18.17;;;10.55;;
9906;SDS011;4992;51.628;6.664;2023-04-06T09:11:55;16.02;;;10.40;;
9906;SDS011;4992;51.628;6.664;2023-04-06T09:14:36;17.15;;;10.18;;
9906;SDS011;4992;51.628;6.664;2023-04-06T09:17:02;15.68;;;10.10;;
9906;SDS011;4992;51.628;6.664;2023-04-06T09:19:28;17.27;;;10.55;;
9906;SDS011;4992;51.628;6.664;2023-04-06T09:22:04;14.00;;;10.70;;
9906;SDS011;4992;51.628;6.664;2023-04-06T09:24:51;15.82;;;10.48;;
9906;SDS011;4992;51.628;6.664;2023-04-06T09:27:17;17.75;;;11.68;;
9906;SDS011;4992;51.628;6.664;2023-04-06T09:29:43;21.17;;;11.23;;
9906;SDS011;4992;51.628;6.664;2023-04-06T09:32:10;15.73;;;10.57;;
9906;SDS011;4992;51.628;6.664;2023-04-06T09:34:37;16.33;;;11.07;;
9906;SDS011;4992;51.628;6.664;2023-04-06T09:37:15;17.92;;;11.95;;
9906;SDS011;4992;51.628;6.664;2023-04-06T09:39:42;19.35;;;11.88;;
9906;SDS011;4992;51.628;6.664;2023-04-06T09:42:08;16.17;;;10.90;;
9906;SDS011;4992;51.628;6.664;2023-04-06T09:44:34;17.70;;;10.50;;
9906;SDS011;4992;51.628;6.664;2023-04-06T09:47:00;15.65;;;10.88;;
9906;SDS011;4992;51.628;6.664;2023-04-06T09:49:27;14.73;;;10.95;;
9906;SDS011;4992;51.628;6.664;2023-04-06T09:51:54;13.13;;;10.60;;
9906;SDS011;4992;51.628;6.664;2023-04-06T09:54:21;14.27;;;10.57;;
9906;SDS011;4992;51.628;6.664;2023-04-06T09:56:53;16.25;;;10.60;;
9906;SDS011;4992;51.628;6.664;2023-04-06T09:59:36;19.30;;;10.95;;
9906;SDS011;4992;51.628;6.664;2023-04-06T10:02:04;15.20;;;10.80;;
9906;SDS011;4992;51.628;6.664;2023-04-06T10:04:39;13.68;;;10.18;;
9906;SDS011;4992;51.628;6.664;2023-04-06T10:07:07;14.93;;;10.23;;
9906;SDS011;4992;51.628;6.664;2023-04-06T10:09:33;14.70;;;10.50;;
9906;SDS011;4992;51.628;6.664;2023-04-06T10:12:05;13.43;;;9.98;;
9906;SDS011;4992;51.628;6.664;2023-04-06T10:14:32;15.38;;;9.90;;
9906;SDS011;4992;51.628;6.664;2023-04-06T10:17:01;17.30;;;10.38;;
9906;SDS011;4992;51.628;6.664;2023-04-06T10:19:28;13.75;;;10.40;;
9906;SDS011;4992;51.628;6.664;2023-04-06T10:21:54;16.15;;;10.88;;
9906;SDS011;4992;51.628;6.664;2023-04-06T10:24:23;12.85;;;10.32;;
9906;SDS011;4992;51.628;6.664;2023-04-06T10:27:00;11.60;;;10.07;;
9906;SDS011;4992;51.628;6.664;2023-04-06T10:29:27;12.40;;;10.50;;
9906;SDS011;4992;51.628;6.664;2023-04-06T10:31:52;16.13;;;10.88;;
9906;SDS011;4992;51.628;6.664;2023-04-06T10:34:20;13.90;;;11.18;;
9906;SDS011;4992;51.628;6.664;2023-04-06T10:36:46;13.65;;;10.90;;
9906;SDS011;4992;51.628;6.664;2023-04-06T10:39:12;13.40;;;10.82;;
9906;SDS011;4992;51.628;6.664;2023-04-06T10:41:41;13.50;;;10.75;;
9906;SDS011;4992;51.628;6.664;2023-04-06T10:44:08;15.85;;;11.27;;
9906;SDS011;4992;51.628;6.664;2023-04-06T10:46:42;20.33;;;11.20;;
9906;SDS011;4992;51.628;6.664;2023-04-06T10:49:17;15.25;;;12.18;;
9906;SDS011;4992;51.628;6.664;2023-04-06T10:51:43;14.02;;;11.20;;
9906;SDS011;4992;51.628;6.664;2023-04-06T10:54:09;14.25;;;10.75;;
9906;SDS011;4992;51.628;6.664;2023-04-06T10:56:38;14.77;;;11.18;;
9906;SDS011;4992;51.628;6.664;2023-04-06T10:59:05;14.55;;;10.80;;
9906;SDS011;4992;51.628;6.664;2023-04-06T11:01:31;15.00;;;10.75;;
9906;SDS011;4992;51.628;6.664;2023-04-06T11:03:57;18.13;;;10.20;;
9906;SDS011;4992;51.628;6.664;2023-04-06T11:06:27;12.77;;;10.68;;
9906;SDS011;4992;51.628;6.664;2023-04-06T11:08:54;14.20;;;10.90;;
9906;SDS011;4992;51.628;6.664;2023-04-06T11:11:21;17.55;;;11.65;;
9906;SDS011;4992;51.628;6.664;2023-04-06T11:16:15;14.90;;;11.15;;
9906;SDS011;4992;51.628;6.664;2023-04-06T11:18:51;14.90;;;11.70;;
9906;SDS011;4992;51.628;6.664;2023-04-06T11:21:31;17.05;;;10.98;;
9906;SDS011;4992;51.628;6.664;2023-04-06T11:26:39;13.77;;;11.20;;
9906;SDS011;4992;51.628;6.664;2023-04-06T11:29:06;13.15;;;10.95;;
9906;SDS011;4992;51.628;6.664;2023-04-06T11:31:37;15.02;;;11.23;;
9906;SDS011;4992;51.628;6.664;2023-04-06T11:34:08;15.75;;;10.25;;
9906;SDS011;4992;51.628;6.664;2023-04-06T11:36:34;14.45;;;10.90;;
9906;SDS011;4992;51.628;6.664;2023-04-06T11:39:00;18.58;;;11.57;;
9906;SDS011;4992;51.628;6.664;2023-04-06T11:41:28;17.67;;;10.80;;
9906;SDS011;4992;51.628;6.664;2023-04-06T11:43:55;15.60;;;10.90;;
9906;SDS011;4992;51.628;6.664;2023-04-06T11:46:21;14.80;;;10.80;;
9906;SDS011;4992;51.628;6.664;2023-04-06T11:48:47;14.55;;;11.32;;
9906;SDS011;4992;51.628;6.664;2023-04-06T11:51:21;15.48;;;11.52;;
9906;SDS011;4992;51.628;6.664;2023-04-06T11:53:47;16.73;;;11.55;;
9906;SDS011;4992;51.628;6.664;2023-04-06T11:56:26;14.75;;;11.38;;
9906;SDS011;4992;51.628;6.664;2023-04-06T11:58:53;14.88;;;10.95;;
9906;SDS011;4992;51.628;6.664;2023-04-06T12:01:20;14.18;;;11.20;;
9906;SDS011;4992;51.628;6.664;2023-04-06T12:03:46;14.45;;;10.70;;
9906;SDS011;4992;51.628;6.664;2023-04-06T12:06:11;15.43;;;11.85;;
9906;SDS011;4992;51.628;6.664;2023-04-06T12:08:37;19.83;;;11.90;;
9906;SDS011;4992;51.628;6.664;2023-04-06T12:11:03;16.95;;;11.38;;
9906;SDS011;4992;51.628;6.664;2023-04-06T12:13:29;16.23;;;11.25;;
9906;SDS011;4992;51.628;6.664;2023-04-06T12:15:55;14.57;;;11.15;;
9906;SDS011;4992;51.628;6.664;2023-04-06T12:18:21;16.67;;;11.07;;
9906;SDS011;4992;51.628;6.664;2023-04-06T12:20:47;15.50;;;10.27;;
9906;SDS011;4992;51.628;6.664;2023-04-06T12:23:13;14.88;;;11.13;;
9906;SDS011;4992;51.628;6.664;2023-04-06T12:25:39;15.05;;;11.05;;
9906;SDS011;4992;51.628;6.664;2023-04-06T12:28:06;14.48;;;10.88;;
9906;SDS011;4992;51.628;6.664;2023-04-06T12:30:32;14.35;;;11.15;;
9906;SDS011;4992;51.628;6.664;2023-04-06T12:32:58;15.70;;;11.30;;
9906;SDS011;4992;51.628;6.664;2023-04-06T12:35:24;13.93;;;10.93;;
9906;SDS011;4992;51.628;6.664;2023-04-06T12:37:50;18.50;;;11.75;;
9906;SDS011;4992;51.628;6.664;2023-04-06T12:40:16;14.75;;;11.70;;
9906;SDS011;4992;51.628;6.664;2023-04-06T12:42:42;15.00;;;10.85;;
9906;SDS011;4992;51.628;6.664;2023-04-06T12:45:08;14.23;;;11.27;;
9906;SDS011;4992;51.628;6.664;2023-04-06T12:47:35;12.65;;;11.05;;
9906;SDS011;4992;51.628;6.664;2023-04-06T12:50:01;14.77;;;11.13;;
9906;SDS011;4992;51.628;6.664;2023-04-06T12:52:27;14.30;;;11.18;;
9906;SDS011;4992;51.628;6.664;2023-04-06T12:54:56;14.85;;;11.50;;
9906;SDS011;4992;51.628;6.664;2023-04-06T12:57:23;13.23;;;10.80;;
9906;SDS011;4992;51.628;6.664;2023-04-06T12:59:49;11.35;;;8.52;;
9906;SDS011;4992;51.628;6.664;2023-04-06T13:02:16;10.77;;;8.60;;
9906;SDS011;4992;51.628;6.664;2023-04-06T13:04:42;9.02;;;7.10;;
9906;SDS011;4992;51.628;6.664;2023-04-06T13:07:08;7.95;;;6.97;;
9906;SDS011;4992;51.628;6.664;2023-04-06T13:09:34;8.60;;;7.63;;
9906;SDS011;4992;51.628;6.664;2023-04-06T13:12:00;11.05;;;7.72;;
9906;SDS011;4992;51.628;6.664;2023-04-06T13:14:26;11.15;;;7.63;;
9906;SDS011;4992;51.628;6.664;2023-04-06T13:16:52;10.93;;;7.57;;
9906;SDS011;4992;51.628;6.664;2023-04-06T13:19:18;8.40;;;7.00;;
9906;SDS011;4992;51.628;6.664;2023-04-06T13:21:44;8.48;;;6.13;;
9906;SDS011;4992;51.628;6.664;2023-04-06T13:24:10;7.18;;;5.65;;
9906;SDS011;4992;51.628;6.664;2023-04-06T13:26:36;6.80;;;6.07;;
9906;SDS011;4992;51.628;6.664;2023-04-06T13:29:02;7.55;;;5.35;;
9906;SDS011;4992;51.628;6.664;2023-04-06T13:31:28;7.20;;;4.97;;
9906;SDS011;4992;51.628;6.664;2023-04-06T13:33:54;5.93;;;4.72;;
9906;SDS011;4992;51.628;6.664;2023-04-06T13:36:21;4.90;;;4.40;;
9906;SDS011;4992;51.628;6.664;2023-04-06T13:38:47;5.13;;;4.22;;
9906;SDS011;4992;51.628;6.664;2023-04-06T13:41:17;7.97;;;3.85;;
9906;SDS011;4992;51.628;6.664;2023-04-06T13:43:43;6.13;;;4.17;;
9906;SDS011;4992;51.628;6.664;2023-04-06T13:46:09;5.57;;;3.90;;
9906;SDS011;4992;51.628;6.664;2023-04-06T13:48:35;5.87;;;4.50;;
9906;SDS011;4992;51.628;6.664;2023-04-06T13:51:08;6.00;;;4.97;;
9906;SDS011;4992;51.628;6.664;2023-04-06T13:53:34;6.17;;;5.57;;
9906;SDS011;4992;51.628;6.664;2023-04-06T13:56:00;7.47;;;5.47;;
9906;SDS011;4992;51.628;6.664;2023-04-06T13:58:26;5.97;;;5.33;;
9906;SDS011;4992;51.628;6.664;2023-04-06T14:00:52;7.70;;;5.67;;
9906;SDS011;4992;51.628;6.664;2023-04-06T14:03:18;7.77;;;5.97;;
9906;SDS011;4992;51.628;6.664;2023-04-06T14:05:44;9.43;;;6.03;;
9906;SDS011;4992;51.628;6.664;2023-04-06T14:08:10;7.40;;;6.17;;
9906;SDS011;4992;51.628;6.664;2023-04-06T14:10:40;8.23;;;6.37;;
9906;SDS011;4992;51.628;6.664;2023-04-06T14:13:07;6.80;;;6.10;;
9906;SDS011;4992;51.628;6.664;2023-04-06T14:15:33;7.00;;;6.10;;
9906;SDS011;4992;51.628;6.664;2023-04-06T14:18:00;7.50;;;6.60;;
9906;SDS011;4992;51.628;6.664;2023-04-06T14:20:26;7.57;;;6.70;;
9906;SDS011;4992;51.628;6.664;2023-04-06T14:22:52;9.90;;;6.80;;
9906;SDS011;4992;51.628;6.664;2023-04-06T14:25:19;8.43;;;6.93;;
9906;SDS011;4992;51.628;6.664;2023-04-06T14:27:45;7.27;;;6.57;;
9906;SDS011;4992;51.628;6.664;2023-04-06T14:30:11;7.57;;;6.87;;
9906;SDS011;4992;51.628;6.664;2023-04-06T14:32:37;7.80;;;7.00;;
9906;SDS011;4992;51.628;6.664;2023-04-06T14:35:04;9.27;;;7.13;;
9906;SDS011;4992;51.628;6.664;2023-04-06T14:37:30;9.13;;;7.60;;
9906;SDS011;4992;51.628;6.664;2023-04-06T14:39:56;8.13;;;7.00;;
9906;SDS011;4992;51.628;6.664;2023-04-06T14:42:22;7.60;;;6.80;;
9906;SDS011;4992;51.628;6.664;2023-04-06T14:44:48;7.93;;;6.50;;
9906;SDS011;4992;51.628;6.664;2023-04-06T14:47:14;10.43;;;7.17;;
9906;SDS011;4992;51.628;6.664;2023-04-06T14:49:45;8.63;;;6.60;;
9906;SDS011;4992;51.628;6.664;2023-04-06T14:52:12;8.47;;;7.00;;
9906;SDS011;4992;51.628;6.664;2023-04-06T14:54:38;9.27;;;7.20;;
9906;SDS011;4992;51.628;6.664;2023-04-06T14:57:04;7.30;;;6.67;;
9906;SDS011;4992;51.628;6.664;2023-04-06T14:59:30;9.50;;;7.70;;
9906;SDS011;4992;51.628;6.664;2023-04-06T15:01:57;9.63;;;7.00;;